createdAt,value
2023-04-10T11:19:26.521Z,2.33
2023-04-10T11:22:08.772Z,2.05
2023-04-10T11:24:59.109Z,2.00
2023-04-10T11:27:51.930Z,2.20
2023-04-10T11:30:30.658Z,2.03
2023-04-10T11:33:02.377Z,1.80
2023-04-10T11:35:33.740Z,2.15
2023-04-10T11:38:15.064Z,2.10
2023-04-10T11:40:58.878Z,1.80
2023-04-10T11:43:29.413Z,1.58
2023-04-10T11:46:08.750Z,1.83
2023-04-10T11:48:39.381Z,2.35
2023-04-10T11:51:11.903Z,2.60
2023-04-10T11:53:42.615Z,2.15
2023-04-10T11:56:30.965Z,1.70
2023-04-10T11:59:02.936Z,1.70
2023-04-10T12:01:34.255Z,2.00
2023-04-10T12:04:04.991Z,2.03
2023-04-10T12:06:35.824Z,1.70
2023-04-10T12:09:16.675Z,1.90
2023-04-10T12:12:04.435Z,1.77
2023-04-10T12:14:42.470Z,1.90
2023-04-10T12:17:13.472Z,1.70
2023-04-10T12:19:44.174Z,1.70
2023-04-10T12:22:14.604Z,2.13
2023-04-10T12:24:53.697Z,2.03
2023-04-10T12:27:28.449Z,1.60
2023-04-10T12:29:59.108Z,1.85
2023-04-10T12:32:29.602Z,1.70
2023-04-10T12:35:01.641Z,1.45
2023-04-10T12:37:55.062Z,1.30
2023-04-10T12:40:25.659Z,1.08
2023-04-10T12:42:55.985Z,1.70
2023-04-10T12:45:45.602Z,1.33
2023-04-10T12:48:24.497Z,1.30
2023-04-10T12:50:55.314Z,1.30
2023-04-10T12:53:28.344Z,1.25
2023-04-10T12:56:06.581Z,1.35
2023-04-10T12:58:37.321Z,1.40
2023-04-10T13:01:10.085Z,1.42
2023-04-10T13:03:41.196Z,1.27
2023-04-10T13:06:11.653Z,1.80
2023-04-10T13:08:41.940Z,1.30
2023-04-10T13:11:12.524Z,1.20
2023-04-10T13:13:42.792Z,1.42
2023-04-10T13:16:14.241Z,1.52
2023-04-10T13:18:44.603Z,1.35
2023-04-10T13:21:22.892Z,1.98
2023-04-10T13:23:53.411Z,1.70
2023-04-10T13:26:25.133Z,1.88
2023-04-10T13:28:55.945Z,2.25
2023-04-10T13:31:26.344Z,1.80
2023-04-10T13:33:56.642Z,1.45
2023-04-10T13:36:27.150Z,1.40
2023-04-10T13:38:57.615Z,1.20
2023-04-10T13:41:27.935Z,1.02
2023-04-10T13:43:58.208Z,1.15
2023-04-10T13:46:28.472Z,1.48
2023-04-10T13:48:58.871Z,1.38
2023-04-10T13:51:32.062Z,1.20
2023-04-10T13:54:05.045Z,1.40
2023-04-10T13:56:35.661Z,1.20
2023-04-10T13:59:06.043Z,1.27
2023-04-10T14:01:36.277Z,1.17
2023-04-10T14:04:06.623Z,1.10
2023-04-10T14:06:37.016Z,1.27
2023-04-10T14:09:11.576Z,1.42
2023-04-10T14:11:42.036Z,1.45
2023-04-10T14:14:12.354Z,1.33
2023-04-10T14:16:42.675Z,1.05
2023-04-10T14:19:13.122Z,1.15
2023-04-10T14:21:44.632Z,1.25
2023-04-10T14:24:15.019Z,1.08
2023-04-10T14:26:45.087Z,1.30
2023-04-10T14:29:18.127Z,1.13
2023-04-10T14:31:57.503Z,1.25
2023-04-10T14:34:28.420Z,1.63
2023-04-10T14:36:58.929Z,1.23
2023-04-10T14:39:29.006Z,1.15
2023-04-10T14:41:59.197Z,1.20
2023-04-10T14:44:31.096Z,1.20
2023-04-10T14:47:01.579Z,1.20
2023-04-10T14:49:32.946Z,1.15
2023-04-10T14:52:05.238Z,1.20
2023-04-10T14:54:35.810Z,1.23
2023-04-10T14:57:07.990Z,1.42
2023-04-10T14:59:38.547Z,1.38
2023-04-10T15:02:09.282Z,1.30
2023-04-10T15:04:40.197Z,1.15
2023-04-10T15:07:36.754Z,1.42
2023-04-10T15:10:13.018Z,1.63
2023-04-10T15:12:49.240Z,1.40
2023-04-10T15:15:22.486Z,1.35
2023-04-10T15:17:55.829Z,1.33
2023-04-10T15:20:28.457Z,1.55
2023-04-10T15:23:06.114Z,1.30
2023-04-10T15:25:40.019Z,1.00
2023-04-10T15:28:22.481Z,1.23
2023-04-10T15:30:54.496Z,1.30
2023-04-10T15:33:39.836Z,1.35
2023-04-10T15:36:44.779Z,1.10
2023-04-10T15:39:15.772Z,1.17
2023-04-10T15:41:46.436Z,1.50
2023-04-10T15:44:17.390Z,1.48
2023-04-10T15:46:48.677Z,1.60
2023-04-10T15:49:29.691Z,3.47
2023-04-10T15:52:05.996Z,3.80
2023-04-10T15:54:44.062Z,4.97
2023-04-10T15:57:14.689Z,3.00
2023-04-10T15:59:45.030Z,3.28
2023-04-10T16:02:15.856Z,2.83
2023-04-10T16:04:46.338Z,3.00
2023-04-10T16:07:17.553Z,2.92
2023-04-10T16:09:47.811Z,3.42
2023-04-10T16:12:18.264Z,2.67
2023-04-10T16:14:49.409Z,2.42
2023-04-10T16:17:19.966Z,2.60
2023-04-10T16:19:50.305Z,2.20
2023-04-10T16:22:25.402Z,2.33
2023-04-10T16:24:57.796Z,1.87
2023-04-10T16:27:28.848Z,2.00
2023-04-10T16:29:59.502Z,1.92
2023-04-10T16:32:31.727Z,2.00
2023-04-10T16:35:02.662Z,2.20
2023-04-10T16:37:33.416Z,2.85
2023-04-10T16:40:04.785Z,2.92
2023-04-10T16:42:38.370Z,3.13
2023-04-10T16:45:09.880Z,3.63
2023-04-10T16:47:46.741Z,3.35
2023-04-10T16:50:17.178Z,4.40
2023-04-10T16:52:47.246Z,4.90
2023-04-10T16:55:17.527Z,5.05
2023-04-10T16:57:51.137Z,4.32
2023-04-10T17:00:21.561Z,3.33
2023-04-10T17:02:51.833Z,3.28
2023-04-10T17:05:22.106Z,3.75
2023-04-10T17:07:52.456Z,3.10
2023-04-10T17:10:24.115Z,3.50
2023-04-10T17:12:54.732Z,2.78
2023-04-10T17:15:25.118Z,4.65
2023-04-10T17:17:55.440Z,5.30
2023-04-10T17:20:25.960Z,7.93
2023-04-10T17:22:56.162Z,11.27
2023-04-10T17:25:26.380Z,13.30
2023-04-10T17:27:57.460Z,9.85
2023-04-10T17:30:27.767Z,17.05
2023-04-10T17:32:59.587Z,20.30
2023-04-10T17:35:30.064Z,17.88
2023-04-10T17:38:00.325Z,12.38
2023-04-10T17:40:32.215Z,11.48
2023-04-10T17:43:02.553Z,11.05
2023-04-10T17:45:32.670Z,10.63
2023-04-10T17:48:03.066Z,9.73
2023-04-10T17:50:33.600Z,9.38
2023-04-10T17:53:03.793Z,13.50
2023-04-10T17:55:39.388Z,9.93
2023-04-10T17:58:09.457Z,8.80
2023-04-10T18:00:43.606Z,12.57
2023-04-10T18:03:13.834Z,9.60
2023-04-10T18:05:43.994Z,10.18
2023-04-10T18:08:14.705Z,8.38
2023-04-10T18:10:44.807Z,9.55
2023-04-10T18:13:14.940Z,7.38
2023-04-10T18:15:45.077Z,7.75
2023-04-10T18:18:15.202Z,7.38
2023-04-10T18:20:45.333Z,8.57
2023-04-10T18:23:41.278Z,7.38
2023-04-10T18:28:46.474Z,6.97
2023-04-10T18:31:18.219Z,5.78
2023-04-10T18:33:56.195Z,6.18
2023-04-10T18:36:34.265Z,6.45
2023-04-10T18:39:05.040Z,6.60
2023-04-10T18:41:35.464Z,6.55
2023-04-10T18:44:06.067Z,9.20
2023-04-10T18:46:36.456Z,6.65
2023-04-10T18:49:06.696Z,6.30
2023-04-10T18:51:38.492Z,5.72
2023-04-10T18:54:09.696Z,4.75
2023-04-10T18:56:39.913Z,6.10
2023-04-10T18:59:10.197Z,4.95
2023-04-10T19:01:40.465Z,4.68
2023-04-10T19:04:11.327Z,4.05
2023-04-10T19:06:43.794Z,4.25
2023-04-10T19:09:14.128Z,4.13
2023-04-10T19:11:45.236Z,3.53
2023-04-10T19:14:16.262Z,3.38
2023-04-10T19:16:46.539Z,4.10
2023-04-10T19:19:17.215Z,3.72
2023-04-10T19:21:47.617Z,2.95
2023-04-10T19:24:18.548Z,2.85
2023-04-10T19:26:49.437Z,2.80
2023-04-10T19:29:20.183Z,3.20
2023-04-10T19:31:51.883Z,2.88
2023-04-10T19:34:22.872Z,2.97
2023-04-10T19:36:55.430Z,2.80
2023-04-10T19:39:26.223Z,3.70
2023-04-10T19:41:58.348Z,3.33
2023-04-10T19:44:29.495Z,3.70
2023-04-10T19:47:00.475Z,3.30
2023-04-10T19:49:37.339Z,3.20
2023-04-10T19:52:08.801Z,3.03
2023-04-10T19:54:38.916Z,2.60
2023-04-10T19:57:09.269Z,2.90
2023-04-10T19:59:39.432Z,2.53
2023-04-10T20:02:12.478Z,2.45
2023-04-10T20:04:42.670Z,2.72
2023-04-10T20:07:12.976Z,2.88
2023-04-10T20:09:43.184Z,2.65
2023-04-10T20:12:13.406Z,3.30
2023-04-10T20:14:44.908Z,2.85
2023-04-10T20:17:16.640Z,2.90
2023-04-10T20:19:46.827Z,2.85
2023-04-10T20:22:17.032Z,2.90
2023-04-10T20:24:47.274Z,3.17
2023-04-10T20:27:17.965Z,2.85
2023-04-10T20:29:48.119Z,2.90
2023-04-10T20:32:18.252Z,3.05
2023-04-10T20:34:48.344Z,3.15
2023-04-10T20:37:22.038Z,4.13
2023-04-10T20:39:52.267Z,3.28
2023-04-10T20:42:23.328Z,3.10
2023-04-10T20:44:54.056Z,3.22
2023-04-10T20:47:24.314Z,3.67
2023-04-10T20:49:54.542Z,4.45
2023-04-10T20:52:24.625Z,6.40
2023-04-10T20:54:54.894Z,8.40
2023-04-10T20:57:25.181Z,8.35
2023-04-10T20:59:55.552Z,7.80
2023-04-10T21:02:25.890Z,6.13
2023-04-10T21:04:56.135Z,5.78
2023-04-10T21:07:26.393Z,4.38
2023-04-10T21:09:57.027Z,4.55
2023-04-10T21:12:27.185Z,4.28
2023-04-10T21:14:57.372Z,5.57
2023-04-10T21:17:31.551Z,4.28
2023-04-10T21:20:01.917Z,4.63
2023-04-10T21:22:32.037Z,4.07
2023-04-10T21:25:02.362Z,4.10
2023-04-10T21:27:32.530Z,4.88
2023-04-10T21:30:02.960Z,4.88
2023-04-10T21:32:33.126Z,5.50
2023-04-10T21:35:03.262Z,4.80
2023-04-10T21:37:33.301Z,5.47
2023-04-10T21:40:03.692Z,5.28
2023-04-10T21:42:37.308Z,6.68
2023-04-10T21:45:07.843Z,6.55
2023-04-10T21:47:37.927Z,7.72
2023-04-10T21:50:08.506Z,8.52
2023-04-10T21:52:38.753Z,11.80
2023-04-10T21:55:09.584Z,14.43
2023-04-10T21:57:39.748Z,16.00
2023-04-10T22:00:10.337Z,17.13
2023-04-10T22:02:40.995Z,16.30
2023-04-10T22:05:12.576Z,15.05
2023-04-10T22:07:42.754Z,13.40
2023-04-10T22:10:12.899Z,12.00
2023-04-10T22:12:43.196Z,10.32
2023-04-10T22:15:13.435Z,8.82
2023-04-10T22:17:43.628Z,7.88
2023-04-10T22:20:13.757Z,7.80
2023-04-10T22:22:43.959Z,7.40
2023-04-10T22:25:14.098Z,6.53
2023-04-10T22:27:44.349Z,6.07
2023-04-10T22:30:15.133Z,5.97
2023-04-10T22:32:45.203Z,5.72
2023-04-10T22:35:16.279Z,5.50
2023-04-10T22:37:46.350Z,5.95
2023-04-10T22:40:16.575Z,4.88
2023-04-10T22:42:48.544Z,4.95
2023-04-10T22:45:18.714Z,5.55
2023-04-10T22:47:48.823Z,5.57
2023-04-10T22:50:18.960Z,6.85
2023-04-10T22:52:49.377Z,6.60
2023-04-10T22:55:19.567Z,7.40
2023-04-10T22:57:49.693Z,6.75
2023-04-10T23:00:19.863Z,6.75
2023-04-10T23:02:50.179Z,6.93
2023-04-10T23:05:20.619Z,6.60
2023-04-10T23:07:50.805Z,7.05
2023-04-10T23:10:21.405Z,6.95
2023-04-10T23:12:51.457Z,6.78
2023-04-10T23:15:21.577Z,7.03
2023-04-10T23:17:51.791Z,7.45
2023-04-10T23:20:22.033Z,6.80
2023-04-10T23:22:52.220Z,7.18
2023-04-10T23:25:22.682Z,7.55
2023-04-10T23:27:52.712Z,6.70
2023-04-10T23:30:22.910Z,6.80
2023-04-10T23:32:53.125Z,7.25
2023-04-10T23:35:23.853Z,7.25
2023-04-10T23:37:54.041Z,7.15
2023-04-10T23:40:24.137Z,7.35
2023-04-10T23:42:54.271Z,6.93
2023-04-10T23:45:24.395Z,6.05
2023-04-10T23:47:54.653Z,6.55
2023-04-10T23:50:24.793Z,7.07
2023-04-10T23:52:54.984Z,7.18
2023-04-10T23:55:26.094Z,6.32
2023-04-10T23:57:56.212Z,7.43
